Terminal Aerodrome Forecast
Issued by NWS

Home | Current Version | Previous Version | Text Only | Print | Product List | Glossary Off
Versions: 1 2 3 4 5 6 7 8 9 10 11 12 13 14 15 16 17 18

925
FTUS41 KCLE 221720
TAFFDY
TAF
KFDY 221720Z 2218/2318 05010KT P6SM FEW250
     FM230800 07006KT P6SM FEW250
     FM231400 11009KT P6SM FEW250=

USA.gov is the U.S. government's official web portal to all federal, state and local government web resources and services.